createdAt,value
2023-02-12T00:01:37.195Z,98846.44
2023-02-12T00:04:06.158Z,98845.63
2023-02-12T00:06:36.728Z,98857.69
2023-02-12T00:09:05.151Z,98868.97
2023-02-12T00:11:33.325Z,98866.88
2023-02-12T00:14:03.526Z,98862.81
2023-02-12T00:16:32.031Z,98857.25
2023-02-12T00:19:00.929Z,98863.22
2023-02-12T00:21:29.382Z,98861.56
2023-02-12T00:23:59.219Z,98855.00
2023-02-12T00:26:27.480Z,98850.09
2023-02-12T00:28:56.157Z,98855.03
2023-02-12T00:31:27.229Z,98860.34
2023-02-12T00:33:57.981Z,98850.13
2023-02-12T00:36:28.772Z,98863.22
2023-02-12T00:38:59.102Z,98862.38
2023-02-12T00:41:28.251Z,98856.69
2023-02-12T00:43:56.795Z,98864.03
2023-02-12T00:46:25.262Z,98875.06
2023-02-12T00:48:53.639Z,98879.56
2023-02-12T00:51:22.003Z,98877.31
2023-02-12T00:53:50.269Z,98873.03
2023-02-12T00:56:19.959Z,98864.84
2023-02-12T00:58:51.175Z,98859.53
2023-02-12T01:01:20.338Z,98855.88
2023-02-12T01:03:48.720Z,98848.91
2023-02-12T01:06:17.262Z,98852.19
2023-02-12T01:08:47.781Z,98860.34
2023-02-12T01:11:16.032Z,98855.03
2023-02-12T01:13:45.733Z,98858.94
2023-02-12T01:16:17.306Z,98863.22
2023-02-12T01:18:46.427Z,98863.81
2023-02-12T01:21:16.482Z,98861.19
2023-02-12T01:23:45.911Z,98864.63
2023-02-12T01:26:15.639Z,98859.94
2023-02-12T01:28:47.234Z,98874.25
2023-02-12T01:31:17.642Z,98872.22
2023-02-12T01:33:49.054Z,98878.75
2023-02-12T01:36:17.783Z,98886.53
2023-02-12T01:38:46.633Z,98884.09
2023-02-12T01:41:17.077Z,98884.91
2023-02-12T01:43:47.618Z,98871.00
2023-02-12T01:46:16.972Z,98863.22
2023-02-12T01:48:47.170Z,98866.69
2023-02-12T01:51:18.337Z,98866.88
2023-02-12T01:53:50.083Z,98863.63
2023-02-12T01:56:19.067Z,98864.47
2023-02-12T01:58:50.032Z,98863.44
2023-02-12T02:01:21.999Z,98872.44
2023-02-12T02:03:53.451Z,98873.84
2023-02-12T02:06:24.485Z,98874.66
2023-02-12T02:08:53.032Z,98875.88
2023-02-12T02:11:38.964Z,98875.88
2023-02-12T02:14:26.586Z,98874.66
2023-02-12T02:17:01.635Z,98875.50
2023-02-12T02:19:37.336Z,98869.78
2023-02-12T02:22:26.063Z,98870.16
2023-02-12T02:25:23.016Z,98866.69
2023-02-12T02:27:58.406Z,98867.31
2023-02-12T02:30:36.797Z,98860.78
2023-02-12T02:33:16.935Z,98870.97
2023-02-12T02:35:49.862Z,98866.91
2023-02-12T02:38:25.598Z,98866.69
2023-02-12T02:40:57.979Z,98866.91
2023-02-12T02:43:30.085Z,98871.41
2023-02-12T02:46:03.046Z,98871.81
2023-02-12T02:48:35.782Z,98870.59
2023-02-12T02:51:07.162Z,98869.56
2023-02-12T02:53:39.135Z,98870.59
2023-02-12T02:56:10.638Z,98866.50
2023-02-12T02:58:41.517Z,98868.13
2023-02-12T03:01:14.056Z,98873.84
2023-02-12T03:03:48.741Z,98873.44
2023-02-12T03:06:22.324Z,98871.81
2023-02-12T03:08:53.703Z,98880.81
2023-02-12T03:11:25.140Z,98876.31
2023-02-12T03:13:58.958Z,98886.13
2023-02-12T03:16:30.699Z,98868.97
2023-02-12T03:19:06.300Z,98868.97
2023-02-12T03:21:37.233Z,98875.28
2023-02-12T03:24:11.640Z,98871.41
2023-02-12T03:26:44.214Z,98871.41
2023-02-12T03:29:13.083Z,98876.31
2023-02-12T03:31:52.253Z,98873.84
2023-02-12T03:34:27.736Z,98869.78
2023-02-12T03:36:58.806Z,98866.91
2023-02-12T03:39:34.965Z,98873.47
2023-02-12T03:42:07.142Z,98877.53
2023-02-12T03:44:48.622Z,98882.44
2023-02-12T03:47:25.321Z,98890.41
2023-02-12T03:49:59.706Z,98889.78
2023-02-12T03:52:29.746Z,98889.78
2023-02-12T03:54:58.604Z,98888.16
2023-02-12T03:57:31.493Z,98892.03
2023-02-12T04:00:00.772Z,98897.97
2023-02-12T04:02:30.700Z,98901.25
2023-02-12T04:04:59.527Z,98899.00
2023-02-12T04:07:28.809Z,98906.97
2023-02-12T04:09:57.519Z,98909.19
2023-02-12T04:12:42.108Z,98903.28
2023-02-12T04:15:23.675Z,98911.47
2023-02-12T04:17:59.747Z,98910.47
2023-02-12T04:20:36.275Z,98905.34
2023-02-12T04:23:13.491Z,98901.69
2023-02-12T04:25:53.624Z,98911.06
2023-02-12T04:28:29.920Z,98914.75
2023-02-12T04:31:01.422Z,98907.81
2023-02-12T04:33:41.318Z,98911.47
2023-02-12T04:36:13.556Z,98909.41
2023-02-12T04:38:44.827Z,98904.53
2023-02-12T04:41:13.558Z,98920.47
2023-02-12T04:43:42.269Z,98923.75
2023-02-12T04:46:11.256Z,98916.56
2023-02-12T04:48:52.321Z,98917.63
2023-02-12T04:56:10.847Z,98927.03
2023-02-12T04:58:39.351Z,98935.63
2023-02-12T05:01:09.378Z,98932.34
2023-02-12T05:03:37.912Z,98936.00
2023-02-12T05:06:09.655Z,98933.56
2023-02-12T05:08:38.097Z,98931.94
2023-02-12T05:11:07.798Z,98933.13
2023-02-12T05:13:36.667Z,98935.19
2023-02-12T05:16:05.963Z,98941.31
2023-02-12T05:18:34.641Z,98941.72
2023-02-12T05:21:05.546Z,98945.00
2023-02-12T05:23:37.766Z,98942.97
2023-02-12T05:26:08.555Z,98948.66
2023-02-12T05:28:37.098Z,98942.69
2023-02-12T05:31:08.564Z,98943.97
2023-02-12T05:33:37.330Z,98950.91
2023-02-12T05:36:07.376Z,98943.31
2023-02-12T05:38:37.513Z,98945.34
2023-02-12T05:41:07.188Z,98952.31
2023-02-12T05:43:35.592Z,98954.59
2023-02-12T05:46:06.413Z,98956.00
2023-02-12T05:48:35.478Z,98958.22
2023-02-12T05:51:05.081Z,98959.25
2023-02-12T05:53:33.873Z,98966.00
2023-02-12T05:56:15.280Z,98967.44
2023-02-12T05:58:46.241Z,98969.91
2023-02-12T06:01:17.406Z,98965.41
2023-02-12T06:03:45.969Z,98968.91
2023-02-12T06:06:14.449Z,98966.63
2023-02-12T06:08:43.300Z,98971.97
2023-02-12T06:11:15.836Z,98960.75
2023-02-12T06:13:44.344Z,98967.06
2023-02-12T06:16:19.108Z,98969.28
2023-02-12T06:18:48.608Z,98967.44
2023-02-12T06:21:18.265Z,98965.81
2023-02-12T06:23:47.553Z,98969.09
2023-02-12T06:26:18.179Z,98971.56
2023-02-12T06:28:47.511Z,98986.25
2023-02-12T06:31:22.703Z,98978.91
2023-02-12T06:33:51.895Z,98990.19
2023-02-12T06:36:20.781Z,98977.28
2023-02-12T06:38:49.621Z,98984.25
2023-02-12T06:41:19.387Z,98993.66
2023-02-12T06:43:48.065Z,98989.53
2023-02-12T06:46:17.203Z,98986.25
2023-02-12T06:48:45.908Z,98993.00
2023-02-12T06:51:16.018Z,98990.53
2023-02-12T06:53:45.011Z,98986.28
2023-02-12T06:56:13.940Z,98994.84
2023-02-12T06:58:45.275Z,98997.72
2023-02-12T07:01:17.755Z,98999.16
2023-02-12T07:03:49.342Z,98999.34
2023-02-12T07:06:18.495Z,98994.03
2023-02-12T07:08:47.551Z,98998.94
2023-02-12T07:11:16.486Z,98994.88
2023-02-12T07:13:47.117Z,98998.16
2023-02-12T07:16:22.576Z,99003.50
2023-02-12T07:18:52.512Z,98992.44
2023-02-12T07:21:22.396Z,99000.59
2023-02-12T07:23:52.538Z,98992.44
2023-02-12T07:26:22.647Z,98993.03
2023-02-12T07:28:53.069Z,98999.19
2023-02-12T07:31:23.621Z,98993.66
2023-02-12T07:33:55.217Z,98997.38
2023-02-12T07:36:27.796Z,98994.50
2023-02-12T07:38:56.725Z,98989.59
2023-02-12T07:41:26.812Z,98996.56
2023-02-12T07:43:58.052Z,98989.19
2023-02-12T07:46:30.163Z,99000.22
2023-02-12T07:48:58.978Z,98995.13
2023-02-12T07:51:28.458Z,98997.78
2023-02-12T07:53:57.365Z,99001.66
2023-02-12T07:56:29.915Z,98994.53
2023-02-12T07:59:01.196Z,99000.66
2023-02-12T08:01:30.986Z,99002.31
2023-02-12T08:04:00.893Z,98990.84
2023-02-12T08:06:30.677Z,99001.06
2023-02-12T08:09:04.529Z,98991.66
2023-02-12T08:11:36.960Z,98999.84
2023-02-12T08:14:07.254Z,98990.22
2023-02-12T08:16:38.231Z,98994.09
2023-02-12T08:19:17.833Z,98990.03
2023-02-12T08:21:51.492Z,98984.09
2023-02-12T08:24:22.455Z,98997.38
2023-02-12T08:26:51.375Z,99000.25
2023-02-12T08:29:24.371Z,98997.00
2023-02-12T08:31:58.230Z,98997.41
2023-02-12T08:34:28.781Z,99000.25
2023-02-12T08:36:58.390Z,99003.31
2023-02-12T08:39:29.617Z,99003.53
2023-02-12T08:41:59.979Z,98996.78
2023-02-12T08:44:29.845Z,99007.22
2023-02-12T08:46:58.690Z,99008.44
2023-02-12T08:49:29.280Z,99002.72
2023-02-12T08:51:59.866Z,99007.59
2023-02-12T08:54:29.429Z,99008.22
2023-02-12T08:56:58.859Z,99006.38
2023-02-12T08:59:27.535Z,99000.66
2023-02-12T09:01:57.255Z,99001.66
2023-02-12T09:04:27.082Z,99003.09
2023-02-12T09:06:55.704Z,98998.16
2023-02-12T09:09:24.328Z,98991.81
2023-02-12T09:11:52.752Z,98996.69
2023-02-12T09:14:24.070Z,98999.53
2023-02-12T09:16:53.762Z,99006.97
2023-02-12T09:19:24.002Z,99004.75
2023-02-12T09:21:55.874Z,99001.00
2023-02-12T09:24:25.097Z,99002.66
2023-02-12T09:26:53.592Z,98994.84
2023-02-12T09:29:21.989Z,99001.00
2023-02-12T09:31:50.812Z,99000.25
2023-02-12T09:34:19.319Z,99010.25
2023-02-12T09:36:49.165Z,99015.59
2023-02-12T09:39:17.452Z,99010.84
2023-02-12T09:42:01.571Z,99007.34
2023-02-12T09:44:34.957Z,99011.19
2023-02-12T09:47:06.408Z,99020.66
2023-02-12T09:49:52.435Z,99016.53
2023-02-12T09:52:24.943Z,99012.00
2023-02-12T09:54:54.637Z,99016.53
2023-02-12T09:57:29.526Z,99011.19
2023-02-12T10:00:00.683Z,99017.69
2023-02-12T10:02:29.044Z,99026.66
2023-02-12T10:05:01.544Z,99023.13
2023-02-12T10:07:41.973Z,99028.69
2023-02-12T10:10:19.892Z,99030.25
2023-02-12T10:12:52.720Z,99043.34
2023-02-12T10:15:35.597Z,99037.22
2023-02-12T10:18:21.806Z,99040.50
2023-02-12T10:20:56.710Z,99038.19
2023-02-12T10:23:49.328Z,99043.31
2023-02-12T10:26:21.949Z,99035.84
2023-02-12T10:28:54.238Z,99035.44
2023-02-12T10:31:29.096Z,99047.47
2023-02-12T10:33:58.956Z,99042.53
2023-02-12T10:36:38.702Z,99046.63
2023-02-12T10:39:14.146Z,99032.41
2023-02-12T10:41:46.677Z,99033.41
2023-02-12T10:44:14.918Z,99031.13
2023-02-12T10:46:43.055Z,99030.31
2023-02-12T10:49:13.398Z,99031.47
2023-02-12T10:51:50.389Z,99029.75
2023-02-12T10:54:40.314Z,99029.75
2023-02-12T10:57:18.166Z,99032.19
2023-02-12T10:59:47.769Z,99034.66
2023-02-12T11:02:31.707Z,99035.06
2023-02-12T11:05:01.480Z,99027.50
2023-02-12T11:07:30.119Z,99031.13
2023-02-12T11:09:59.908Z,99027.72
2023-02-12T11:12:32.598Z,99022.69
2023-02-12T11:15:02.261Z,99023.28
2023-02-12T11:17:35.977Z,99021.34
2023-02-12T11:20:09.790Z,99023.16
2023-02-12T11:22:38.338Z,99022.28
2023-02-12T11:25:18.023Z,99017.66
2023-02-12T11:27:46.185Z,99013.03
2023-02-12T11:30:19.568Z,99019.94
2023-02-12T11:32:49.447Z,99017.41
2023-02-12T11:35:25.064Z,99011.19
2023-02-12T11:37:55.615Z,99008.66
2023-02-12T11:40:26.954Z,99006.22
2023-02-12T11:42:57.338Z,99012.66
2023-02-12T11:45:31.439Z,99005.38
2023-02-12T11:48:00.131Z,98998.78
2023-02-12T11:50:30.032Z,99002.44
2023-02-12T11:53:01.352Z,99004.22
2023-02-12T11:55:33.778Z,98996.63
2023-02-12T11:58:06.854Z,98995.31
2023-02-12T12:00:39.194Z,98989.97
2023-02-12T12:03:14.910Z,98994.69
2023-02-12T12:05:47.322Z,99003.09
2023-02-12T12:08:21.126Z,98998.13
2023-02-12T12:10:55.977Z,99000.34
2023-02-12T12:13:28.946Z,98997.03
2023-02-12T12:16:23.310Z,98998.56
2023-02-12T12:19:13.009Z,98996.47
2023-02-12T12:21:44.968Z,98994.91
2023-02-12T12:24:16.239Z,98992.63
2023-02-12T12:26:48.788Z,98994.56
2023-02-12T12:29:21.005Z,98999.91
2023-02-12T12:31:51.383Z,98984.97
2023-02-12T12:34:21.236Z,98989.19
2023-02-12T12:37:07.470Z,98988.31
2023-02-12T12:39:37.852Z,98984.47
2023-02-12T12:42:37.503Z,98975.09
2023-02-12T12:45:44.120Z,98975.91
2023-02-12T12:48:22.940Z,98978.34
2023-02-12T12:51:04.002Z,98972.44
2023-02-12T12:53:40.560Z,98970.59
2023-02-12T12:56:21.645Z,98963.19
2023-02-12T12:59:01.954Z,98968.06
2023-02-12T13:02:11.454Z,98959.00
2023-02-12T13:04:57.182Z,98958.91
2023-02-12T13:07:43.240Z,98953.09
2023-02-12T13:10:23.763Z,98962.97
2023-02-12T13:13:02.531Z,98955.47
2023-02-12T13:15:36.159Z,98963.03
2023-02-12T13:18:13.981Z,98961.38
2023-02-12T13:20:49.801Z,98951.75
2023-02-12T13:23:21.202Z,98955.38
2023-02-12T13:25:55.525Z,98961.22
2023-02-12T13:28:30.585Z,98962.66
2023-02-12T13:31:01.464Z,98955.47
2023-02-12T13:33:36.259Z,98966.50
2023-02-12T13:36:07.429Z,98961.44
2023-02-12T13:38:40.026Z,98958.41
2023-02-12T13:41:10.908Z,98954.00
2023-02-12T13:43:48.642Z,98950.72
2023-02-12T13:46:25.466Z,98950.00
2023-02-12T13:49:00.121Z,98950.84
2023-02-12T13:51:34.478Z,98966.84
2023-02-12T13:54:18.132Z,98962.56
2023-02-12T13:56:47.826Z,98960.25
2023-02-12T13:59:41.841Z,98964.97
2023-02-12T14:02:52.141Z,98957.22
2023-02-12T14:05:30.354Z,98958.81
2023-02-12T14:08:00.911Z,98963.94
2023-02-12T14:10:31.798Z,98962.19
2023-02-12T14:13:12.823Z,98961.97
2023-02-12T14:15:44.634Z,98955.28
2023-02-12T14:18:31.264Z,98957.00
2023-02-12T14:21:40.949Z,98962.19
2023-02-12T14:24:52.018Z,98951.19
2023-02-12T14:27:28.682Z,98950.84
2023-02-12T14:30:25.692Z,98950.66
2023-02-12T14:33:23.407Z,98956.63
2023-02-12T14:36:15.144Z,98960.84
2023-02-12T14:39:02.520Z,98958.72
2023-02-12T14:41:37.904Z,98964.13
2023-02-12T14:44:46.047Z,98954.25
2023-02-12T14:47:45.287Z,98951.09
2023-02-12T14:50:19.053Z,98954.16
2023-02-12T14:52:53.149Z,98954.88
2023-02-12T14:55:27.576Z,98953.25
2023-02-12T14:58:01.685Z,98955.47
2023-02-12T15:00:34.063Z,98952.94
2023-02-12T15:03:07.910Z,98954.94
2023-02-12T15:05:39.751Z,98951.63
2023-02-12T15:08:12.128Z,98958.47
2023-02-12T15:10:43.139Z,98945.22
2023-02-12T15:13:40.091Z,98943.13
2023-02-12T15:16:10.715Z,98948.94
2023-02-12T15:18:47.097Z,98950.47
2023-02-12T15:21:21.990Z,98946.22
2023-02-12T15:24:02.242Z,98940.75
2023-02-12T15:26:33.404Z,98944.00
2023-02-12T15:29:02.262Z,98947.88
2023-02-12T15:31:32.982Z,98940.78
2023-02-12T15:34:03.328Z,98936.16
2023-02-12T15:36:34.381Z,98936.84
2023-02-12T15:39:04.966Z,98943.81
2023-02-12T15:41:38.771Z,98932.78
2023-02-12T15:44:21.287Z,98940.34
2023-02-12T15:46:57.298Z,98934.88
2023-02-12T15:49:30.764Z,98934.25
2023-02-12T15:52:02.368Z,98934.50
2023-02-12T15:54:30.995Z,98929.44
2023-02-12T15:56:59.491Z,98927.47
2023-02-12T15:59:29.664Z,98915.91
2023-02-12T16:02:00.680Z,98925.53
2023-02-12T16:04:31.508Z,98925.81
2023-02-12T16:07:01.938Z,98922.66
2023-02-12T16:09:32.311Z,98924.91
2023-02-12T16:12:02.808Z,98917.47
2023-02-12T16:14:40.785Z,98925.53
2023-02-12T16:17:22.374Z,98919.59
2023-02-12T16:19:58.797Z,98924.34
2023-02-12T16:22:32.263Z,98923.47
2023-02-12T16:25:01.641Z,98916.19
2023-02-12T16:27:32.101Z,98925.03
2023-02-12T16:30:01.834Z,98932.28
2023-02-12T16:32:36.292Z,98931.84
2023-02-12T16:35:08.485Z,98929.75
2023-02-12T16:37:49.941Z,98938.00
2023-02-12T16:40:30.876Z,98938.00
2023-02-12T16:43:02.003Z,98935.75
2023-02-12T16:45:38.236Z,98942.59
2023-02-12T16:48:15.203Z,98939.38
2023-02-12T16:50:47.618Z,98940.31
2023-02-12T16:53:29.417Z,98936.31
2023-02-12T16:55:58.201Z,98928.56
2023-02-12T16:58:26.942Z,98939.38
2023-02-12T17:00:56.768Z,98933.22
2023-02-12T17:03:25.745Z,98934.09
2023-02-12T17:05:54.906Z,98928.31
2023-02-12T17:08:26.053Z,98934.59
2023-02-12T17:10:54.408Z,98933.16
2023-02-12T17:13:22.737Z,98942.38
2023-02-12T17:15:54.115Z,98939.53
2023-02-12T17:18:23.206Z,98945.72
2023-02-12T17:20:55.424Z,98944.88
2023-02-12T17:23:24.530Z,98952.94
2023-02-12T17:25:54.553Z,98945.38
2023-02-12T17:28:25.187Z,98944.78
2023-02-12T17:30:54.893Z,98947.66
2023-02-12T17:33:23.834Z,98943.81
2023-02-12T17:35:52.094Z,98945.47
2023-02-12T17:38:20.364Z,98953.31
2023-02-12T17:40:48.679Z,98954.69
2023-02-12T17:43:18.500Z,98950.44
2023-02-12T17:45:47.134Z,98957.59
2023-02-12T17:48:17.591Z,98954.97
2023-02-12T17:50:45.908Z,98952.72
2023-02-12T17:53:14.184Z,98953.34
2023-02-12T17:55:42.687Z,98955.44
2023-02-12T17:58:10.948Z,98957.50
2023-02-12T18:00:41.688Z,98958.34
2023-02-12T18:03:10.058Z,98955.50
2023-02-12T18:05:41.904Z,98961.22
2023-02-12T18:08:11.036Z,98960.66
2023-02-12T18:10:41.354Z,98958.38
2023-02-12T18:13:10.089Z,98969.88
2023-02-12T18:15:38.661Z,98962.50
2023-02-12T18:18:08.468Z,98967.81
2023-02-12T18:20:37.100Z,98970.91
2023-02-12T18:23:06.607Z,98976.22
2023-02-12T18:25:34.915Z,98981.34
2023-02-12T18:28:03.246Z,98983.84
2023-02-12T18:30:31.721Z,98975.84
2023-02-12T18:33:00.117Z,98977.91
2023-02-12T18:35:29.639Z,98977.31
2023-02-12T18:37:57.832Z,98974.03
2023-02-12T18:40:26.467Z,98972.19
2023-02-12T18:42:54.712Z,98959.13
2023-02-12T18:45:23.006Z,98966.69
2023-02-12T18:47:51.302Z,98974.66
2023-02-12T18:50:20.609Z,98972.44
2023-02-12T18:52:50.309Z,98972.03
2023-02-12T18:55:18.636Z,98967.53
2023-02-12T18:57:46.957Z,98965.06
2023-02-12T19:00:15.997Z,98971.41
2023-02-12T19:02:44.201Z,98963.84
2023-02-12T19:05:12.986Z,98966.50
2023-02-12T19:07:41.177Z,98961.19
2023-02-12T19:10:11.899Z,98963.19
2023-02-12T19:12:40.902Z,98956.47
2023-02-12T19:15:09.852Z,98963.59
2023-02-12T19:17:38.061Z,98959.06
2023-02-12T19:20:07.101Z,98967.41
2023-02-12T19:22:35.335Z,98962.41
2023-02-12T19:25:04.204Z,98961.44
2023-02-12T19:27:33.760Z,98959.66
2023-02-12T19:30:02.709Z,98966.53
2023-02-12T19:32:31.320Z,98966.50
2023-02-12T19:34:59.584Z,98969.38
2023-02-12T19:37:27.777Z,98967.38
2023-02-12T19:39:56.018Z,98969.03
2023-02-12T19:42:24.207Z,98973.09
2023-02-12T19:44:53.784Z,98964.75
2023-02-12T19:47:22.004Z,98970.28
2023-02-12T19:49:50.386Z,98982.13
2023-02-12T19:52:18.599Z,98977.81
2023-02-12T19:54:46.741Z,98981.28
2023-02-12T19:57:15.417Z,98981.91
2023-02-12T19:59:46.428Z,98984.16
2023-02-12T20:02:15.987Z,98989.66
2023-02-12T20:04:44.159Z,98987.22
2023-02-12T20:07:13.558Z,98985.34
2023-02-12T20:09:41.712Z,98990.03
2023-02-12T20:12:09.962Z,98992.94
2023-02-12T20:14:38.224Z,98996.41
2023-02-12T20:17:06.803Z,98992.28
2023-02-12T20:19:36.405Z,98994.75
2023-02-12T20:22:04.686Z,98995.56
2023-02-12T20:24:34.011Z,99000.28
2023-02-12T20:27:27.009Z,98990.84
2023-02-12T20:29:55.743Z,98995.06
2023-02-12T20:32:24.122Z,99001.66
2023-02-12T20:34:53.810Z,99001.66
2023-02-12T20:37:22.150Z,98997.56
2023-02-12T20:39:50.373Z,98999.59
2023-02-12T20:42:18.770Z,98994.28
2023-02-12T20:44:47.143Z,98993.88
2023-02-12T20:47:15.435Z,98991.41
2023-02-12T20:49:43.735Z,98997.13
2023-02-12T20:52:13.590Z,98992.81
2023-02-12T20:54:42.316Z,98991.81
2023-02-12T20:57:10.691Z,98994.25
2023-02-12T20:59:39.134Z,98988.06
2023-02-12T21:02:08.251Z,98993.34
2023-02-12T21:04:36.466Z,98992.56
2023-02-12T21:07:04.724Z,98983.38
2023-02-12T21:09:34.774Z,98990.53
2023-02-12T21:12:02.934Z,98988.94
2023-02-12T21:14:31.170Z,98985.66
2023-02-12T21:16:59.803Z,98990.97
2023-02-12T21:19:29.111Z,98986.84
2023-02-12T21:21:57.346Z,98985.97
2023-02-12T21:24:26.599Z,98989.69
2023-02-12T21:26:57.101Z,98986.84
2023-02-12T21:29:26.718Z,98985.56
2023-02-12T21:31:55.508Z,98984.34
2023-02-12T21:34:25.067Z,98984.50
2023-02-12T21:36:55.266Z,98992.31
2023-02-12T21:39:26.381Z,98990.88
2023-02-12T21:41:58.561Z,98989.19
2023-02-12T21:44:27.391Z,98989.56
2023-02-12T21:46:55.960Z,98986.72
2023-02-12T21:49:27.869Z,98996.09
2023-02-12T21:51:57.979Z,98987.13
2023-02-12T21:54:27.290Z,98993.00
2023-02-12T21:56:57.375Z,98985.00
2023-02-12T21:59:26.600Z,98978.50
2023-02-12T22:01:58.378Z,98990.88
2023-02-12T22:04:26.864Z,98995.78
2023-02-12T22:06:56.570Z,98985.66
2023-02-12T22:09:25.095Z,98988.91
2023-02-12T22:11:53.463Z,98991.75
2023-02-12T22:14:23.399Z,98997.88
2023-02-12T22:16:51.813Z,98995.50
2023-02-12T22:19:20.793Z,98993.84
2023-02-12T22:21:51.505Z,98995.09
2023-02-12T22:24:20.007Z,98988.91
2023-02-12T22:26:48.240Z,98991.28
2023-02-12T22:29:17.306Z,98990.84
2023-02-12T22:31:48.032Z,98988.44
2023-02-12T22:34:18.768Z,98991.09
2023-02-12T22:36:47.592Z,98994.16
2023-02-12T22:39:17.611Z,98995.50
2023-02-12T22:41:46.301Z,98992.19
2023-02-12T22:44:15.865Z,98996.34
2023-02-12T22:46:44.786Z,99000.81
2023-02-12T22:49:14.945Z,99004.09
2023-02-12T22:51:43.386Z,99004.91
2023-02-12T22:54:14.237Z,98997.50
2023-02-12T22:56:42.755Z,99003.19
2023-02-12T22:59:12.436Z,98996.88
2023-02-12T23:01:40.780Z,99001.59
2023-02-12T23:04:09.641Z,98998.13
2023-02-12T23:06:39.333Z,98996.91
2023-02-12T23:09:07.930Z,99001.41
2023-02-12T23:11:36.276Z,99003.19
2023-02-12T23:14:04.586Z,98998.69
2023-02-12T23:16:33.015Z,98999.16
2023-02-12T23:19:02.451Z,99002.03
2023-02-12T23:21:31.847Z,99002.81
2023-02-12T23:24:01.433Z,98995.03
2023-02-12T23:26:30.289Z,99001.56
2023-02-12T23:28:58.928Z,98997.03
2023-02-12T23:31:27.405Z,98989.19
2023-02-12T23:33:55.728Z,98991.31
2023-02-12T23:36:23.961Z,98990.44
2023-02-12T23:38:52.308Z,98987.97
2023-02-12T23:41:21.890Z,98989.19
2023-02-12T23:43:50.063Z,98987.78
2023-02-12T23:46:18.347Z,98993.75
2023-02-12T23:48:46.572Z,98987.94
2023-02-12T23:51:14.895Z,98984.53
2023-02-12T23:53:43.046Z,98979.72
2023-02-12T23:56:11.748Z,98985.44
2023-02-12T23:58:41.371Z,98970.72
